createdAt,value
2018-09-20T00:01:25.290Z,56.70
2018-09-20T00:03:53.401Z,56.00
2018-09-20T00:06:21.324Z,56.00
2018-09-20T00:08:49.263Z,56.00
2018-09-20T00:11:17.388Z,56.00
2018-09-20T00:13:45.317Z,56.10
2018-09-20T00:16:13.279Z,56.10
2018-09-20T00:18:41.430Z,56.00
2018-09-20T00:21:09.366Z,56.10
2018-09-20T00:23:37.288Z,56.10
2018-09-20T00:26:05.788Z,56.10
2018-09-20T00:28:33.727Z,56.10
2018-09-20T00:31:01.646Z,56.20
2018-09-20T00:33:29.831Z,56.20
2018-09-20T00:35:57.752Z,56.20
2018-09-20T00:38:25.682Z,56.20
2018-09-20T00:40:53.791Z,56.20
2018-09-20T00:43:21.726Z,56.20
2018-09-20T00:45:49.878Z,56.20
2018-09-20T00:48:18.614Z,56.20
2018-09-20T00:50:46.560Z,56.30
2018-09-20T00:53:14.528Z,56.20
2018-09-20T00:55:42.471Z,56.20
2018-09-20T00:58:10.422Z,56.20
2018-09-20T01:00:38.369Z,56.20
2018-09-20T01:03:06.339Z,56.20
2018-09-20T01:06:03.918Z,56.20
2018-09-20T01:08:32.084Z,56.30
2018-09-20T01:11:00.025Z,56.30
2018-09-20T01:13:27.976Z,56.30
2018-09-20T01:15:56.196Z,56.30
2018-09-20T01:18:24.713Z,56.30
2018-09-20T01:20:52.943Z,56.40
2018-09-20T01:23:20.975Z,56.50
2018-09-20T01:25:48.945Z,56.60
2018-09-20T01:28:16.900Z,56.70
2018-09-20T01:30:44.913Z,56.90
2018-09-20T01:33:12.899Z,57.00
2018-09-20T01:35:40.982Z,57.00
2018-09-20T01:38:09.058Z,57.10
2018-09-20T01:40:37.011Z,57.00
2018-09-20T01:43:04.994Z,57.10
2018-09-20T01:45:35.939Z,57.00
2018-09-20T01:48:04.004Z,56.90
2018-09-20T01:50:32.265Z,56.90
2018-09-20T01:53:00.760Z,56.90
2018-09-20T01:55:28.734Z,56.90
2018-09-20T01:57:56.659Z,56.90
2018-09-20T02:00:24.882Z,56.90
2018-09-20T02:02:52.940Z,56.90
2018-09-20T02:05:20.915Z,56.90
2018-09-20T02:07:49.183Z,56.90
2018-09-20T02:10:17.263Z,56.90
2018-09-20T02:12:45.184Z,56.90
2018-09-20T02:15:13.405Z,56.90
2018-09-20T02:17:41.332Z,57.00
2018-09-20T02:20:09.431Z,57.10
2018-09-20T02:22:37.731Z,57.10
2018-09-20T02:25:06.008Z,57.10
2018-09-20T02:27:33.951Z,57.30
2018-09-20T02:30:02.251Z,57.40
2018-09-20T02:32:30.321Z,57.60
2018-09-20T02:34:58.314Z,57.60
2018-09-20T02:37:26.359Z,57.60
2018-09-20T02:39:54.309Z,57.60
2018-09-20T02:42:22.303Z,57.70
2018-09-20T02:44:50.586Z,57.70
2018-09-20T02:47:18.662Z,57.80
2018-09-20T02:49:46.832Z,57.90
2018-09-20T02:52:15.098Z,58.00
2018-09-20T02:54:43.170Z,58.10
2018-09-20T02:57:11.117Z,58.10
2018-09-20T02:59:39.450Z,58.10
2018-09-20T03:02:07.575Z,58.20
2018-09-20T03:04:35.681Z,58.20
2018-09-20T03:07:03.836Z,58.30
2018-09-20T03:09:31.807Z,58.30
2018-09-20T03:11:59.777Z,58.40
2018-09-20T03:14:27.954Z,58.30
2018-09-20T03:16:56.908Z,58.30
2018-09-20T03:19:24.928Z,58.40
2018-09-20T03:21:53.096Z,58.60
2018-09-20T03:24:21.110Z,58.60
2018-09-20T03:26:49.056Z,58.70
2018-09-20T03:29:17.325Z,58.70
2018-09-20T03:31:45.311Z,58.70
2018-09-20T03:34:13.260Z,58.90
2018-09-20T03:36:41.429Z,58.90
2018-09-20T03:39:10.625Z,58.90
2018-09-20T03:41:38.780Z,59.00
2018-09-20T03:44:06.964Z,59.00
2018-09-20T03:46:34.949Z,59.30
2018-09-20T03:49:03.403Z,59.40
2018-09-20T03:51:31.431Z,59.50
2018-09-20T03:53:59.483Z,59.60
2018-09-20T03:56:27.446Z,59.60
2018-09-20T03:58:56.500Z,59.60
2018-09-20T04:01:24.445Z,59.60
2018-09-20T04:03:52.747Z,59.60
2018-09-20T04:06:20.697Z,59.80
2018-09-20T04:08:48.657Z,59.80
2018-09-20T04:11:16.690Z,59.90
2018-09-20T04:13:44.771Z,60.00
2018-09-20T04:16:12.803Z,60.00
2018-09-20T04:18:41.243Z,60.20
2018-09-20T04:21:09.488Z,60.20
2018-09-20T04:23:37.436Z,60.40
2018-09-20T04:26:05.530Z,60.50
2018-09-20T04:28:33.595Z,60.80
2018-09-20T04:31:01.585Z,60.90
2018-09-20T04:33:32.503Z,60.80
2018-09-20T04:36:00.482Z,60.80
2018-09-20T04:38:28.491Z,61.00
2018-09-20T04:40:56.521Z,61.00
2018-09-20T04:43:24.455Z,61.00
2018-09-20T04:45:52.473Z,61.30
2018-09-20T04:48:20.740Z,61.30
2018-09-20T04:50:48.711Z,61.50
2018-09-20T04:53:16.768Z,61.70
2018-09-20T04:55:45.088Z,61.70
2018-09-20T04:58:13.007Z,61.70
2018-09-20T05:00:40.953Z,61.80
2018-09-20T05:03:09.108Z,62.10
2018-09-20T05:05:37.031Z,62.00
2018-09-20T05:08:05.210Z,62.00
2018-09-20T05:10:33.403Z,62.40
2018-09-20T05:13:01.503Z,62.30
2018-09-20T05:15:29.432Z,62.30
2018-09-20T05:17:57.414Z,62.30
2018-09-20T05:20:25.475Z,62.40
2018-09-20T05:22:53.432Z,62.40
2018-09-20T05:25:21.487Z,62.40
2018-09-20T05:27:49.479Z,62.50
2018-09-20T05:30:17.566Z,62.50
2018-09-20T05:32:45.845Z,62.90
2018-09-20T05:35:13.803Z,62.90
2018-09-20T05:37:41.874Z,63.00
2018-09-20T05:40:10.357Z,63.30
2018-09-20T05:42:38.814Z,63.10
2018-09-20T05:45:06.901Z,63.20
2018-09-20T05:47:35.293Z,63.10
2018-09-20T05:50:03.280Z,63.00
2018-09-20T05:52:31.911Z,63.00
2018-09-20T05:55:00.936Z,63.20
2018-09-20T05:57:29.155Z,63.20
2018-09-20T05:59:57.072Z,63.40
2018-09-20T06:02:25.660Z,63.40
2018-09-20T06:07:26.944Z,63.30
2018-09-20T06:09:54.923Z,64.00
2018-09-20T06:12:22.883Z,63.20
2018-09-20T06:14:51.150Z,63.30
2018-09-20T06:17:19.112Z,63.40
2018-09-20T06:19:47.046Z,63.50
2018-09-20T06:22:15.267Z,63.50
2018-09-20T06:24:43.212Z,63.40
2018-09-20T06:27:11.396Z,63.50
2018-09-20T06:29:39.551Z,63.40
2018-09-20T06:32:07.556Z,63.20
2018-09-20T06:34:35.525Z,63.20
2018-09-20T06:37:04.308Z,64.00
2018-09-20T06:39:32.367Z,63.10
2018-09-20T06:42:00.350Z,63.00
2018-09-20T06:44:28.626Z,62.80
2018-09-20T06:46:57.212Z,62.50
2018-09-20T06:49:25.308Z,62.40
2018-09-20T06:51:53.672Z,62.40
2018-09-20T06:54:21.618Z,62.30
2018-09-20T06:56:49.715Z,62.30
2018-09-20T06:59:17.880Z,62.20
2018-09-20T07:01:45.835Z,62.20
2018-09-20T07:04:13.828Z,62.10
2018-09-20T07:06:42.051Z,62.00
2018-09-20T07:09:12.027Z,62.00
2018-09-20T07:11:40.147Z,61.80
2018-09-20T07:14:08.763Z,61.60
2018-09-20T07:16:36.743Z,61.70
2018-09-20T07:19:04.896Z,61.70
2018-09-20T07:21:33.303Z,61.50
2018-09-20T07:24:02.450Z,61.40
2018-09-20T07:26:30.669Z,61.10
2018-09-20T07:28:58.861Z,61.00
2018-09-20T07:31:26.819Z,60.60
2018-09-20T07:33:54.999Z,60.40
2018-09-20T07:36:22.956Z,60.30
2018-09-20T07:38:51.175Z,60.00
2018-09-20T07:41:19.317Z,60.10
2018-09-20T07:43:47.495Z,60.00
2018-09-20T07:46:15.564Z,59.70
2018-09-20T07:48:43.840Z,59.70
2018-09-20T07:51:11.798Z,59.80
2018-09-20T07:53:39.780Z,59.90
2018-09-20T07:56:07.753Z,59.50
2018-09-20T07:58:35.712Z,58.80
2018-09-20T08:01:03.685Z,58.80
2018-09-20T08:03:31.701Z,58.80
2018-09-20T08:05:59.666Z,58.40
2018-09-20T08:08:27.611Z,58.20
2018-09-20T08:10:55.647Z,57.90
2018-09-20T08:13:23.645Z,57.80
2018-09-20T08:15:51.584Z,57.60
2018-09-20T08:18:19.572Z,57.80
2018-09-20T08:20:47.538Z,57.90
2018-09-20T08:23:15.614Z,57.90
2018-09-20T08:25:43.579Z,58.00
2018-09-20T08:28:11.621Z,57.90
2018-09-20T08:30:39.597Z,57.70
2018-09-20T08:33:07.804Z,57.70
2018-09-20T08:35:35.776Z,57.50
2018-09-20T08:38:03.913Z,57.50
2018-09-20T08:40:32.124Z,57.10
2018-09-20T08:43:00.093Z,56.90
2018-09-20T08:45:28.285Z,57.00
2018-09-20T08:47:56.385Z,56.20
2018-09-20T08:50:24.339Z,55.70
2018-09-20T08:52:52.699Z,55.70
2018-09-20T08:55:27.515Z,55.90
2018-09-20T08:57:56.494Z,56.10
2018-09-20T09:00:25.076Z,56.20
2018-09-20T09:02:53.077Z,56.00
2018-09-20T09:05:21.362Z,55.60
2018-09-20T09:07:49.359Z,55.60
2018-09-20T09:10:17.537Z,55.60
2018-09-20T09:12:45.765Z,55.40
2018-09-20T09:15:13.714Z,55.00
2018-09-20T09:17:41.705Z,55.00
2018-09-20T09:20:09.678Z,55.00
2018-09-20T09:22:37.650Z,53.60
2018-09-20T09:25:05.589Z,53.30
2018-09-20T09:27:33.535Z,53.70
2018-09-20T09:30:01.557Z,53.90
2018-09-20T09:32:29.486Z,53.40
2018-09-20T09:34:57.550Z,53.50
2018-09-20T09:37:25.664Z,53.40
2018-09-20T09:39:53.640Z,53.10
2018-09-20T09:42:21.579Z,53.10
2018-09-20T09:44:49.792Z,52.80
2018-09-20T09:47:18.061Z,52.90
2018-09-20T09:49:46.067Z,52.90
2018-09-20T09:52:14.045Z,53.00
2018-09-20T09:54:42.304Z,53.00
2018-09-20T09:57:10.285Z,53.20
2018-09-20T09:59:38.404Z,53.20
2018-09-20T10:02:06.658Z,53.20
2018-09-20T10:04:34.693Z,52.70
2018-09-20T10:07:02.934Z,53.10
2018-09-20T10:09:30.838Z,53.20
2018-09-20T10:12:02.467Z,53.20
2018-09-20T10:14:30.501Z,53.90
2018-09-20T10:16:58.502Z,53.20
2018-09-20T10:19:26.675Z,53.10
2018-09-20T10:21:54.625Z,53.30
2018-09-20T10:24:22.614Z,53.30
2018-09-20T10:26:51.104Z,53.40
2018-09-20T10:29:19.031Z,53.40
2018-09-20T10:31:47.007Z,53.40
2018-09-20T10:34:15.219Z,53.30
2018-09-20T10:36:43.148Z,53.20
2018-09-20T10:39:12.888Z,53.20
2018-09-20T10:41:41.372Z,53.00
2018-09-20T10:44:09.552Z,53.10
2018-09-20T10:46:37.507Z,53.00
2018-09-20T10:49:05.793Z,53.00
2018-09-20T10:51:34.069Z,52.70
2018-09-20T10:54:02.135Z,52.90
2018-09-20T10:56:30.315Z,52.90
2018-09-20T10:58:58.594Z,52.80
2018-09-20T11:01:26.577Z,52.80
2018-09-20T11:03:54.745Z,52.80
2018-09-20T11:06:23.009Z,52.80
2018-09-20T11:08:51.196Z,52.50
2018-09-20T11:11:19.274Z,52.30
2018-09-20T11:13:47.746Z,52.40
2018-09-20T11:16:15.788Z,52.50
2018-09-20T11:18:43.703Z,52.50
2018-09-20T11:21:11.932Z,52.40
2018-09-20T11:23:39.941Z,52.50
2018-09-20T11:26:07.904Z,52.30
2018-09-20T11:28:36.080Z,52.20
2018-09-20T11:31:04.019Z,52.40
2018-09-20T11:33:32.009Z,52.00
2018-09-20T11:36:00.135Z,51.90
2018-09-20T11:38:28.111Z,52.00
2018-09-20T11:40:56.056Z,52.10
2018-09-20T11:43:24.515Z,51.90
2018-09-20T11:45:52.478Z,51.80
2018-09-20T11:48:20.987Z,52.00
2018-09-20T11:50:49.237Z,51.80
2018-09-20T11:53:17.202Z,52.00
2018-09-20T11:55:45.167Z,51.90
2018-09-20T11:58:13.361Z,51.80
2018-09-20T12:00:41.329Z,51.80
2018-09-20T12:03:09.321Z,51.90
2018-09-20T12:05:37.463Z,51.50
2018-09-20T12:08:05.629Z,52.20
2018-09-20T12:10:33.617Z,51.50
2018-09-20T12:13:01.555Z,51.60
2018-09-20T12:15:29.684Z,51.60
2018-09-20T12:17:57.616Z,51.50
2018-09-20T12:20:25.573Z,51.30
2018-09-20T12:22:53.896Z,51.30
2018-09-20T12:25:22.047Z,51.40
2018-09-20T12:27:50.013Z,51.30
2018-09-20T12:30:17.950Z,51.30
2018-09-20T12:32:46.052Z,51.20
2018-09-20T12:35:14.022Z,51.20
2018-09-20T12:37:42.083Z,51.30
2018-09-20T12:40:10.065Z,51.20
2018-09-20T12:42:38.922Z,51.00
2018-09-20T12:45:07.129Z,50.70
2018-09-20T12:47:35.306Z,50.60
2018-09-20T12:50:03.347Z,50.40
2018-09-20T12:52:31.274Z,50.10
2018-09-20T12:54:59.639Z,50.20
2018-09-20T12:57:27.572Z,49.80
2018-09-20T12:59:55.657Z,50.40
2018-09-20T13:02:23.880Z,50.80
2018-09-20T13:04:51.934Z,50.80
2018-09-20T13:07:20.139Z,50.70
2018-09-20T13:09:48.543Z,50.60
2018-09-20T13:12:16.733Z,50.50
2018-09-20T13:14:45.134Z,50.50
2018-09-20T13:17:13.307Z,50.40
2018-09-20T13:19:41.261Z,50.40
2018-09-20T13:22:09.349Z,49.90
2018-09-20T13:24:37.632Z,50.30
2018-09-20T13:27:05.652Z,49.80
2018-09-20T13:29:33.592Z,49.80
2018-09-20T13:32:01.771Z,50.00
2018-09-20T13:34:29.728Z,50.00
2018-09-20T13:36:57.657Z,50.20
2018-09-20T13:39:25.853Z,50.20
2018-09-20T13:41:53.805Z,49.90
2018-09-20T13:44:22.712Z,49.60
2018-09-20T13:46:51.085Z,49.20
2018-09-20T13:49:19.136Z,48.80
2018-09-20T13:51:47.067Z,48.40
2018-09-20T13:54:15.311Z,48.50
2018-09-20T13:56:43.251Z,48.60
2018-09-20T13:59:11.194Z,48.50
2018-09-20T14:01:39.539Z,48.50
2018-09-20T14:04:07.495Z,47.10
2018-09-20T14:06:35.467Z,47.20
2018-09-20T14:09:05.036Z,46.90
2018-09-20T14:11:32.974Z,47.00
2018-09-20T14:14:01.275Z,47.00
2018-09-20T14:16:29.181Z,47.10
2018-09-20T14:18:57.186Z,47.10
2018-09-20T14:21:25.120Z,47.50
2018-09-20T14:23:53.346Z,47.70
2018-09-20T14:26:21.394Z,47.50
2018-09-20T14:28:49.359Z,47.60
2018-09-20T14:31:17.520Z,47.90
2018-09-20T14:33:45.489Z,48.00
2018-09-20T14:36:13.487Z,48.10
2018-09-20T14:38:41.479Z,48.20
2018-09-20T14:41:09.975Z,48.20
2018-09-20T14:43:38.135Z,48.20
2018-09-20T14:46:07.037Z,48.30
2018-09-20T14:48:35.114Z,48.30
2018-09-20T14:51:03.426Z,48.20
2018-09-20T14:53:31.388Z,47.90
2018-09-20T14:55:59.563Z,48.00
2018-09-20T14:58:27.506Z,47.50
2018-09-20T15:00:55.448Z,47.80
2018-09-20T15:03:23.690Z,47.90
2018-09-20T15:05:51.663Z,48.10
2018-09-20T15:08:19.651Z,47.90
2018-09-20T15:10:48.020Z,47.70
2018-09-20T15:13:16.313Z,48.00
2018-09-20T15:15:44.262Z,48.00
2018-09-20T15:18:12.525Z,48.30
2018-09-20T15:20:40.519Z,48.10
2018-09-20T15:23:08.454Z,48.00
2018-09-20T15:25:36.793Z,48.20
2018-09-20T15:28:04.822Z,45.70
2018-09-20T15:30:32.762Z,46.50
2018-09-20T15:33:00.723Z,45.80
2018-09-20T15:35:28.792Z,45.50
2018-09-20T15:37:57.071Z,45.10
2018-09-20T15:40:25.033Z,45.80
2018-09-20T15:42:53.006Z,46.00
2018-09-20T15:45:21.321Z,46.20
2018-09-20T15:47:49.736Z,46.40
2018-09-20T15:50:17.676Z,46.50
2018-09-20T15:52:45.846Z,46.70
2018-09-20T15:55:13.880Z,47.60
2018-09-20T15:57:41.985Z,46.60
2018-09-20T16:00:09.961Z,46.50
2018-09-20T16:02:37.922Z,46.60
2018-09-20T16:05:05.901Z,47.10
2018-09-20T16:07:33.868Z,47.10
2018-09-20T16:10:01.826Z,47.00
2018-09-20T16:12:29.784Z,47.20
2018-09-20T16:15:01.276Z,47.10
2018-09-20T16:17:29.216Z,47.20
2018-09-20T16:19:57.165Z,47.10
2018-09-20T16:22:25.384Z,47.20
2018-09-20T16:24:53.673Z,47.40
2018-09-20T16:27:21.686Z,47.40
2018-09-20T16:30:10.099Z,47.30
2018-09-20T16:32:49.307Z,46.80
2018-09-20T16:35:29.556Z,46.60
2018-09-20T16:38:14.805Z,46.80
2018-09-20T16:40:44.578Z,46.90
2018-09-20T16:43:12.615Z,48.10
2018-09-20T16:45:44.181Z,48.50
2018-09-20T16:48:12.162Z,48.30
2018-09-20T16:50:40.198Z,47.90
2018-09-20T16:53:08.228Z,47.50
2018-09-20T16:55:36.132Z,47.90
2018-09-20T16:58:04.431Z,48.00
2018-09-20T17:00:32.384Z,48.10
2018-09-20T17:03:00.366Z,48.20
2018-09-20T17:05:28.441Z,48.30
2018-09-20T17:07:56.424Z,48.10
2018-09-20T17:10:24.421Z,48.40
2018-09-20T17:12:52.380Z,48.40
2018-09-20T17:15:20.436Z,48.50
2018-09-20T17:17:48.535Z,48.60
2018-09-20T17:20:16.536Z,48.30
2018-09-20T17:22:44.492Z,48.40
2018-09-20T17:25:12.448Z,48.50
2018-09-20T17:27:40.432Z,48.60
2018-09-20T17:30:08.463Z,48.60
2018-09-20T17:32:36.395Z,48.50
2018-09-20T17:35:04.433Z,48.70
2018-09-20T17:37:32.976Z,48.80
2018-09-20T17:40:01.359Z,48.80
2018-09-20T17:42:29.676Z,48.70
2018-09-20T17:44:57.663Z,49.20
2018-09-20T17:47:25.687Z,49.30
2018-09-20T17:49:53.724Z,49.30
2018-09-20T17:52:22.859Z,49.20
2018-09-20T17:54:50.951Z,49.20
2018-09-20T17:57:19.282Z,50.00
2018-09-20T17:59:47.252Z,49.30
2018-09-20T18:02:15.258Z,49.40
2018-09-20T18:04:43.290Z,49.50
2018-09-20T18:07:11.262Z,49.70
2018-09-20T18:09:39.231Z,49.70
2018-09-20T18:12:10.283Z,49.70
2018-09-20T18:14:38.222Z,49.90
2018-09-20T18:17:06.184Z,50.00
2018-09-20T18:19:34.234Z,50.20
2018-09-20T18:22:02.223Z,50.20
2018-09-20T18:24:30.190Z,50.30
2018-09-20T18:26:58.117Z,50.40
2018-09-20T18:29:26.774Z,50.80
2018-09-20T18:31:54.750Z,50.80
2018-09-20T18:34:22.844Z,50.80
2018-09-20T18:36:50.755Z,50.90
2018-09-20T18:39:18.720Z,50.90
2018-09-20T18:41:46.701Z,50.90
2018-09-20T18:44:14.710Z,51.00
2018-09-20T18:46:42.743Z,51.20
2018-09-20T18:49:10.742Z,51.30
2018-09-20T18:51:38.692Z,51.30
2018-09-20T18:54:06.693Z,51.40
2018-09-20T18:56:34.659Z,51.50
2018-09-20T18:59:02.942Z,51.60
2018-09-20T19:01:32.928Z,51.70
2018-09-20T19:04:00.978Z,51.80
2018-09-20T19:06:28.912Z,51.90
2018-09-20T19:08:56.964Z,52.00
2018-09-20T19:11:24.993Z,52.10
2018-09-20T19:13:52.953Z,52.20
2018-09-20T19:16:20.979Z,52.20
2018-09-20T19:18:48.939Z,52.30
2018-09-20T19:23:44.744Z,52.00
2018-09-20T19:26:12.857Z,52.70
2018-09-20T19:28:40.892Z,52.80
2018-09-20T19:31:08.871Z,52.90
2018-09-20T19:33:36.906Z,52.90
2018-09-20T19:36:04.939Z,53.00
2018-09-20T19:38:32.877Z,53.20
2018-09-20T19:41:00.975Z,53.30
2018-09-20T19:43:29.003Z,53.40
2018-09-20T19:45:57.017Z,53.50
2018-09-20T19:48:28.213Z,53.50
2018-09-20T19:50:56.166Z,53.60
2018-09-20T19:53:24.131Z,53.90
2018-09-20T19:55:52.061Z,53.90
2018-09-20T19:58:20.039Z,53.90
2018-09-20T20:00:47.994Z,54.00
2018-09-20T20:03:16.135Z,54.20
2018-09-20T20:05:44.164Z,54.20
2018-09-20T20:08:12.533Z,54.30
2018-09-20T20:10:40.650Z,54.50
2018-09-20T20:13:08.627Z,54.60
2018-09-20T20:15:36.684Z,54.60
2018-09-20T20:18:04.725Z,54.80
2018-09-20T20:20:32.899Z,55.10
2018-09-20T20:23:00.868Z,55.20
2018-09-20T20:25:28.835Z,55.50
2018-09-20T20:27:57.004Z,55.70
2018-09-20T20:30:25.052Z,56.00
2018-09-20T20:32:53.057Z,56.20
2018-09-20T20:35:21.124Z,56.60
2018-09-20T20:37:49.148Z,56.60
2018-09-20T20:40:17.101Z,56.70
2018-09-20T20:42:45.069Z,56.80
2018-09-20T20:45:13.042Z,56.80
2018-09-20T20:47:41.041Z,57.20
2018-09-20T20:50:08.985Z,57.20
2018-09-20T20:52:36.948Z,57.20
2018-09-20T20:55:04.979Z,58.00
2018-09-20T20:57:32.955Z,57.90
2018-09-20T21:00:00.945Z,57.90
2018-09-20T21:02:29.069Z,57.90
2018-09-20T21:04:57.072Z,58.60
2018-09-20T21:07:25.092Z,58.20
2018-09-20T21:09:53.104Z,58.20
2018-09-20T21:12:21.280Z,58.40
2018-09-20T21:14:49.273Z,58.40
2018-09-20T21:17:17.476Z,58.50
2018-09-20T21:19:45.501Z,58.50
2018-09-20T21:22:13.467Z,58.50
2018-09-20T21:24:41.553Z,58.50
2018-09-20T21:27:09.513Z,58.60
2018-09-20T21:29:37.523Z,58.70
2018-09-20T21:32:05.550Z,58.60
2018-09-20T21:34:33.487Z,58.70
2018-09-20T21:37:01.419Z,58.70
2018-09-20T21:39:29.398Z,59.00
2018-09-20T21:41:57.364Z,59.20
2018-09-20T21:44:25.402Z,59.30
2018-09-20T21:46:53.433Z,59.00
2018-09-20T21:49:21.449Z,59.00
2018-09-20T21:51:49.417Z,59.80
2018-09-20T21:54:17.492Z,59.20
2018-09-20T21:56:45.428Z,59.80
2018-09-20T21:59:13.366Z,59.50
2018-09-20T22:01:47.230Z,59.60
2018-09-20T22:04:15.199Z,59.50
2018-09-20T22:06:43.167Z,59.50
2018-09-20T22:09:12.470Z,59.50
2018-09-20T22:11:40.935Z,59.60
2018-09-20T22:14:08.941Z,60.00
2018-09-20T22:16:37.516Z,60.10
2018-09-20T22:19:05.686Z,60.00
2018-09-20T22:21:33.967Z,60.00
2018-09-20T22:24:01.932Z,59.10
2018-09-20T22:26:29.863Z,59.70
2018-09-20T22:28:57.839Z,59.60
2018-09-20T22:31:25.848Z,59.50
2018-09-20T22:33:53.799Z,59.50
2018-09-20T22:36:21.767Z,59.50
2018-09-20T22:38:49.759Z,59.50
2018-09-20T22:41:18.123Z,59.50
2018-09-20T22:43:46.302Z,59.60
2018-09-20T22:46:14.371Z,59.50
2018-09-20T22:48:42.442Z,59.50
2018-09-20T22:51:11.028Z,59.40
2018-09-20T22:53:39.379Z,59.50
2018-09-20T22:56:07.467Z,59.40
2018-09-20T22:58:35.661Z,59.40
2018-09-20T23:01:03.632Z,59.40
2018-09-20T23:03:31.695Z,59.40
2018-09-20T23:05:59.883Z,59.40
2018-09-20T23:08:27.914Z,59.40
2018-09-20T23:10:55.851Z,59.50
2018-09-20T23:13:23.892Z,59.60
2018-09-20T23:15:51.855Z,59.70
2018-09-20T23:18:19.857Z,59.90
2018-09-20T23:20:47.843Z,59.90
2018-09-20T23:23:15.864Z,60.00
2018-09-20T23:25:43.835Z,59.90
2018-09-20T23:28:11.802Z,59.80
2018-09-20T23:30:39.751Z,59.80
2018-09-20T23:33:07.774Z,59.70
2018-09-20T23:35:35.816Z,59.70
2018-09-20T23:38:03.792Z,59.70
2018-09-20T23:40:31.746Z,59.60
2018-09-20T23:42:59.787Z,59.60
2018-09-20T23:45:27.796Z,59.60
2018-09-20T23:47:55.871Z,59.60
2018-09-20T23:50:23.939Z,59.60
2018-09-20T23:52:51.883Z,59.50
2018-09-20T23:55:19.832Z,59.60
2018-09-20T23:57:47.847Z,59.60
